Hyalite Weather Station

This weather station provides temperature, wind speed, gust or max wind speed, and wind direction at 9982ft near the summit of Flanders Mountain. This data can be used with temperature and precipitation data from the Shower Falls SNOTEL site. If the data has not been updated recently you can view it directly on datagarrison.com

Elevation
9982ft
Jump to table bottom
Date Time Temperature
deg F
RH, % Wind Speed Wind Gust Wind Direction
10/22/19 23:00 18.7 96 21 43 W - 271
10/22/19 22:00 19.3 95 19 39 W - 277
10/22/19 21:00 20.3 96 23 54 W - 279
10/22/19 20:00 21.3 96 30 60 W - 275
10/22/19 19:00 23.4 89 30 60 W - 272
10/22/19 18:00 25.6 79 30 64 W - 265
10/22/19 17:00 27.5 73 31 65 W - 274
10/22/19 16:00 28.7 74 29 54 W - 260
10/22/19 15:00 29.1 85 29 53 W - 268
10/22/19 14:00 29.0 97 34 55 W - 264
10/22/19 13:00 28.1 98 31 56 W - 264
10/22/19 12:00 26.2 98 32 54 W - 260
10/22/19 11:00 26.4 99 30 48 W - 261
10/22/19 10:00 27.3 99 27 45 W - 263
10/22/19 09:00 26.9 98 27 44 W - 263
10/22/19 08:00 26.3 98 25 42 W - 264
10/22/19 07:00 26.1 98 26 44 W - 263
10/22/19 06:00 25.5 98 26 44 W - 263
10/22/19 05:00 25.2 98 24 41 W - 260
10/22/19 04:00 24.4 97 21 38 W - 251
10/22/19 03:00 23.8 97 24 39 W - 248
10/22/19 02:00 22.9 97 24 37 W - 254
10/22/19 01:00 21.7 96 24 35 W - 253
10/22/19 00:00 20.2 96 22 35 W - 254
10/21/19 23:00 18.8 95 18 30 W - 257
10/21/19 22:00 18.0 95 20 32 W - 256
10/21/19 21:00 17.5 95 20 34 W - 260
10/21/19 20:00 17.2 95 18 28 W - 254
10/21/19 19:00 17.2 95 14 21 W - 258
10/21/19 18:00 17.4 95 13 23 W - 271
10/21/19 17:00 17.8 95 15 24 W - 267
10/21/19 16:00 18.2 95 16 27 W - 268
10/21/19 15:00 18.0 95 16 25 W - 264
10/21/19 14:00 17.8 95 17 30 W - 267
10/21/19 13:00 17.6 95 14 29 W - 272
10/21/19 12:00 17.7 95 14 27 W - 270
10/21/19 11:00 16.7 94 15 29 W - 270
10/21/19 10:00 16.6 94 16 29 W - 268
10/21/19 09:00 16.2 94 18 38 W - 267
10/21/19 08:00 16.2 94 14 33 W - 265
10/21/19 07:00 16.6 94 17 33 W - 267
10/21/19 06:00 16.8 94 16 27 W - 264
10/21/19 05:00 16.2 94 17 27 W - 257
10/21/19 04:00 15.4 94 13 22 W - 254
10/21/19 03:00 15.1 94 12 21 W - 253
10/21/19 02:00 14.7 94 12 19 W - 250
10/21/19 01:00 14.5 93 14 23 SW - 246
10/21/19 00:00 14.1 93 14 25 SW - 243
10/20/19 23:00 13.8 93 10 20 SW - 244
10/20/19 22:00 13.4 93 9 15 W - 250